sensor_id;sensor_type;location;lat;lon;timestamp;temperature;humidity
54788;DHT22;59598;48.112;16.280;2022-11-20T00:01:43;2.80;99.90
54788;DHT22;59598;48.112;16.280;2022-11-20T00:04:15;2.90;99.90
54788;DHT22;59598;48.112;16.280;2022-11-20T00:06:46;2.90;99.90
54788;DHT22;59598;48.112;16.280;2022-11-20T00:09:20;2.80;99.90
54788;DHT22;59598;48.112;16.280;2022-11-20T00:11:53;2.80;99.90
54788;DHT22;59598;48.112;16.280;2022-11-20T00:14:27;2.90;99.90
54788;DHT22;59598;48.112;16.280;2022-11-20T00:16:59;2.80;99.90
54788;DHT22;59598;48.112;16.280;2022-11-20T00:19:33;2.80;99.90
54788;DHT22;59598;48.112;16.280;2022-11-20T00:22:08;2.80;99.90
54788;DHT22;59598;48.112;16.280;2022-11-20T00:24:41;2.80;99.90
54788;DHT22;59598;48.112;16.280;2022-11-20T00:27:12;2.90;99.90
54788;DHT22;59598;48.112;16.280;2022-11-20T00:29:45;3.00;99.90
54788;DHT22;59598;48.112;16.280;2022-11-20T00:32:18;3.00;99.90
54788;DHT22;59598;48.112;16.280;2022-11-20T00:34:52;3.10;99.90
54788;DHT22;59598;48.112;16.280;2022-11-20T00:37:33;3.10;99.90
54788;DHT22;59598;48.112;16.280;2022-11-20T00:40:09;3.10;99.90
54788;DHT22;59598;48.112;16.280;2022-11-20T00:42:43;3.10;99.90
54788;DHT22;59598;48.112;16.280;2022-11-20T00:45:16;3.00;99.90
54788;DHT22;59598;48.112;16.280;2022-11-20T00:47:47;2.90;99.90
54788;DHT22;59598;48.112;16.280;2022-11-20T00:50:18;2.60;99.90
54788;DHT22;59598;48.112;16.280;2022-11-20T00:52:50;2.60;99.90
54788;DHT22;59598;48.112;16.280;2022-11-20T00:55:23;2.40;99.90
54788;DHT22;59598;48.112;16.280;2022-11-20T00:57:56;2.40;99.90
54788;DHT22;59598;48.112;16.280;2022-11-20T01:00:31;2.30;99.90
54788;DHT22;59598;48.112;16.280;2022-11-20T01:03:02;2.40;99.90
54788;DHT22;59598;48.112;16.280;2022-11-20T01:05:35;2.50;99.90
54788;DHT22;59598;48.112;16.280;2022-11-20T01:08:08;2.60;99.90
54788;DHT22;59598;48.112;16.280;2022-11-20T01:10:40;2.70;99.90
54788;DHT22;59598;48.112;16.280;2022-11-20T01:13:13;2.70;99.90
54788;DHT22;59598;48.112;16.280;2022-11-20T01:16:21;2.50;99.90
54788;DHT22;59598;48.112;16.280;2022-11-20T01:18:57;2.40;99.90
54788;DHT22;59598;48.112;16.280;2022-11-20T01:21:37;2.50;99.90
54788;DHT22;59598;48.112;16.280;2022-11-20T01:24:13;2.50;99.90
54788;DHT22;59598;48.112;16.280;2022-11-20T01:26:52;2.40;99.90
54788;DHT22;59598;48.112;16.280;2022-11-20T01:29:29;2.40;99.90
54788;DHT22;59598;48.112;16.280;2022-11-20T01:32:01;2.30;99.90
54788;DHT22;59598;48.112;16.280;2022-11-20T01:34:34;2.30;99.90
54788;DHT22;59598;48.112;16.280;2022-11-20T01:37:10;2.30;99.90
54788;DHT22;59598;48.112;16.280;2022-11-20T01:39:41;2.20;99.90
54788;DHT22;59598;48.112;16.280;2022-11-20T01:42:13;2.00;99.90
54788;DHT22;59598;48.112;16.280;2022-11-20T01:48:15;2.00;99.90
54788;DHT22;59598;48.112;16.280;2022-11-20T01:50:48;2.20;99.90
54788;DHT22;59598;48.112;16.280;2022-11-20T01:53:30;2.30;99.90
54788;DHT22;59598;48.112;16.280;2022-11-20T01:56:06;2.30;99.90
54788;DHT22;59598;48.112;16.280;2022-11-20T01:58:45;2.30;99.90
54788;DHT22;59598;48.112;16.280;2022-11-20T02:01:22;2.20;99.90
54788;DHT22;59598;48.112;16.280;2022-11-20T02:03:56;2.20;99.90
54788;DHT22;59598;48.112;16.280;2022-11-20T02:06:30;2.00;99.90
54788;DHT22;59598;48.112;16.280;2022-11-20T02:09:03;1.90;99.90
54788;DHT22;59598;48.112;16.280;2022-11-20T02:11:37;2.00;99.90
54788;DHT22;59598;48.112;16.280;2022-11-20T02:14:09;2.00;99.90
54788;DHT22;59598;48.112;16.280;2022-11-20T02:16:48;2.00;99.90
54788;DHT22;59598;48.112;16.280;2022-11-20T02:19:30;2.10;99.90
54788;DHT22;59598;48.112;16.280;2022-11-20T02:22:20;2.10;99.90
54788;DHT22;59598;48.112;16.280;2022-11-20T02:24:53;2.10;99.90
54788;DHT22;59598;48.112;16.280;2022-11-20T02:27:24;2.00;99.90
54788;DHT22;59598;48.112;16.280;2022-11-20T02:30:04;2.00;99.90
54788;DHT22;59598;48.112;16.280;2022-11-20T02:32:39;2.10;99.90
54788;DHT22;59598;48.112;16.280;2022-11-20T02:38:09;2.00;99.90
54788;DHT22;59598;48.112;16.280;2022-11-20T02:40:42;2.10;99.90
54788;DHT22;59598;48.112;16.280;2022-11-20T02:43:15;2.20;99.90
54788;DHT22;59598;48.112;16.280;2022-11-20T02:45:55;2.20;99.90
54788;DHT22;59598;48.112;16.280;2022-11-20T02:48:32;2.20;99.90
54788;DHT22;59598;48.112;16.280;2022-11-20T02:51:04;2.10;99.90
54788;DHT22;59598;48.112;16.280;2022-11-20T02:53:35;2.20;99.90
54788;DHT22;59598;48.112;16.280;2022-11-20T02:56:07;2.40;99.90
54788;DHT22;59598;48.112;16.280;2022-11-20T02:58:41;2.40;99.90
54788;DHT22;59598;48.112;16.280;2022-11-20T03:01:17;2.40;99.90
54788;DHT22;59598;48.112;16.280;2022-11-20T03:03:49;2.50;99.90
54788;DHT22;59598;48.112;16.280;2022-11-20T03:06:20;2.40;99.90
54788;DHT22;59598;48.112;16.280;2022-11-20T03:08:52;2.40;99.90
54788;DHT22;59598;48.112;16.280;2022-11-20T03:11:24;2.50;99.90
54788;DHT22;59598;48.112;16.280;2022-11-20T03:13:56;2.50;99.90
54788;DHT22;59598;48.112;16.280;2022-11-20T03:16:31;2.60;99.90
54788;DHT22;59598;48.112;16.280;2022-11-20T03:19:06;2.40;99.90
54788;DHT22;59598;48.112;16.280;2022-11-20T03:21:37;2.40;99.90
54788;DHT22;59598;48.112;16.280;2022-11-20T03:24:14;2.40;99.90
54788;DHT22;59598;48.112;16.280;2022-11-20T03:26:45;2.40;99.90
54788;DHT22;59598;48.112;16.280;2022-11-20T03:29:19;2.50;99.90
54788;DHT22;59598;48.112;16.280;2022-11-20T03:31:53;2.50;99.90
54788;DHT22;59598;48.112;16.280;2022-11-20T03:34:27;2.20;99.90
54788;DHT22;59598;48.112;16.280;2022-11-20T03:37:01;2.00;99.90
54788;DHT22;59598;48.112;16.280;2022-11-20T03:39:32;2.20;99.90
54788;DHT22;59598;48.112;16.280;2022-11-20T03:42:06;2.30;99.90
54788;DHT22;59598;48.112;16.280;2022-11-20T03:45:00;2.30;99.90
54788;DHT22;59598;48.112;16.280;2022-11-20T03:47:33;2.40;99.90
54788;DHT22;59598;48.112;16.280;2022-11-20T03:50:08;2.40;99.90
54788;DHT22;59598;48.112;16.280;2022-11-20T03:52:50;2.50;99.90
54788;DHT22;59598;48.112;16.280;2022-11-20T03:55:23;2.60;99.90
54788;DHT22;59598;48.112;16.280;2022-11-20T03:57:55;2.50;99.90
54788;DHT22;59598;48.112;16.280;2022-11-20T04:00:31;2.60;99.90
54788;DHT22;59598;48.112;16.280;2022-11-20T04:03:06;2.50;99.90
54788;DHT22;59598;48.112;16.280;2022-11-20T04:05:37;2.50;99.90
54788;DHT22;59598;48.112;16.280;2022-11-20T04:08:08;2.60;99.90
54788;DHT22;59598;48.112;16.280;2022-11-20T04:10:42;2.70;99.90
54788;DHT22;59598;48.112;16.280;2022-11-20T04:13:16;2.70;99.90
54788;DHT22;59598;48.112;16.280;2022-11-20T04:15:47;2.70;99.90
54788;DHT22;59598;48.112;16.280;2022-11-20T04:18:19;2.80;99.90
54788;DHT22;59598;48.112;16.280;2022-11-20T04:20:50;2.80;99.90
54788;DHT22;59598;48.112;16.280;2022-11-20T04:23:23;2.80;99.90
54788;DHT22;59598;48.112;16.280;2022-11-20T04:26:05;2.80;99.90
54788;DHT22;59598;48.112;16.280;2022-11-20T04:28:39;2.80;99.90
54788;DHT22;59598;48.112;16.280;2022-11-20T04:31:14;2.80;99.90
54788;DHT22;59598;48.112;16.280;2022-11-20T04:33:48;2.80;99.90
54788;DHT22;59598;48.112;16.280;2022-11-20T04:36:27;2.90;99.90
54788;DHT22;59598;48.112;16.280;2022-11-20T04:39:02;2.80;99.90
54788;DHT22;59598;48.112;16.280;2022-11-20T04:41:38;2.80;99.90
54788;DHT22;59598;48.112;16.280;2022-11-20T04:44:14;2.70;99.90
54788;DHT22;59598;48.112;16.280;2022-11-20T04:46:48;2.60;99.90
54788;DHT22;59598;48.112;16.280;2022-11-20T04:49:19;2.40;99.90
54788;DHT22;59598;48.112;16.280;2022-11-20T04:51:53;2.30;99.90
54788;DHT22;59598;48.112;16.280;2022-11-20T04:54:25;2.20;99.90
54788;DHT22;59598;48.112;16.280;2022-11-20T04:56:58;2.10;99.90
54788;DHT22;59598;48.112;16.280;2022-11-20T04:59:29;2.10;99.90
54788;DHT22;59598;48.112;16.280;2022-11-20T05:02:03;2.30;99.90
54788;DHT22;59598;48.112;16.280;2022-11-20T05:04:40;2.30;99.90
54788;DHT22;59598;48.112;16.280;2022-11-20T05:07:11;2.40;99.90
54788;DHT22;59598;48.112;16.280;2022-11-20T05:09:45;2.50;99.90
54788;DHT22;59598;48.112;16.280;2022-11-20T05:12:18;2.50;99.90
54788;DHT22;59598;48.112;16.280;2022-11-20T05:14:50;2.20;99.90
54788;DHT22;59598;48.112;16.280;2022-11-20T05:17:21;2.00;99.90
54788;DHT22;59598;48.112;16.280;2022-11-20T05:19:55;2.10;99.90
54788;DHT22;59598;48.112;16.280;2022-11-20T05:22:26;2.10;99.90
54788;DHT22;59598;48.112;16.280;2022-11-20T05:25:02;2.20;99.90
54788;DHT22;59598;48.112;16.280;2022-11-20T05:27:36;2.30;99.90
54788;DHT22;59598;48.112;16.280;2022-11-20T05:30:11;2.40;99.90
54788;DHT22;59598;48.112;16.280;2022-11-20T05:32:43;2.60;99.90
54788;DHT22;59598;48.112;16.280;2022-11-20T05:35:14;2.60;99.90
54788;DHT22;59598;48.112;16.280;2022-11-20T05:37:48;2.70;99.90
54788;DHT22;59598;48.112;16.280;2022-11-20T05:40:24;2.70;99.90
54788;DHT22;59598;48.112;16.280;2022-11-20T05:43:01;2.90;99.90
54788;DHT22;59598;48.112;16.280;2022-11-20T05:45:34;3.00;99.90
54788;DHT22;59598;48.112;16.280;2022-11-20T05:48:06;3.00;99.90
54788;DHT22;59598;48.112;16.280;2022-11-20T05:50:37;2.80;99.90
54788;DHT22;59598;48.112;16.280;2022-11-20T05:53:08;2.70;99.90
54788;DHT22;59598;48.112;16.280;2022-11-20T05:55:40;2.50;99.90
54788;DHT22;59598;48.112;16.280;2022-11-20T05:58:11;2.40;99.90
54788;DHT22;59598;48.112;16.280;2022-11-20T06:00:45;2.30;99.90
54788;DHT22;59598;48.112;16.280;2022-11-20T06:03:18;2.10;99.90
54788;DHT22;59598;48.112;16.280;2022-11-20T06:05:52;2.10;99.90
54788;DHT22;59598;48.112;16.280;2022-11-20T06:08:25;2.00;99.90
54788;DHT22;59598;48.112;16.280;2022-11-20T06:11:04;2.10;99.90
54788;DHT22;59598;48.112;16.280;2022-11-20T06:13:41;2.10;99.90
54788;DHT22;59598;48.112;16.280;2022-11-20T06:16:20;2.00;99.90
54788;DHT22;59598;48.112;16.280;2022-11-20T06:18:55;2.00;99.90
54788;DHT22;59598;48.112;16.280;2022-11-20T06:21:26;2.10;99.90
54788;DHT22;59598;48.112;16.280;2022-11-20T06:24:00;2.10;99.90
54788;DHT22;59598;48.112;16.280;2022-11-20T06:26:31;2.20;99.90
54788;DHT22;59598;48.112;16.280;2022-11-20T06:29:02;2.20;99.90
54788;DHT22;59598;48.112;16.280;2022-11-20T06:31:39;2.10;99.90
54788;DHT22;59598;48.112;16.280;2022-11-20T06:34:13;2.10;99.90
54788;DHT22;59598;48.112;16.280;2022-11-20T06:36:44;2.30;99.90
54788;DHT22;59598;48.112;16.280;2022-11-20T06:39:15;2.40;99.90
54788;DHT22;59598;48.112;16.280;2022-11-20T06:41:47;2.20;99.90
54788;DHT22;59598;48.112;16.280;2022-11-20T06:44:21;2.10;99.90
54788;DHT22;59598;48.112;16.280;2022-11-20T06:46:52;2.20;99.90
54788;DHT22;59598;48.112;16.280;2022-11-20T06:49:26;2.30;99.90
54788;DHT22;59598;48.112;16.280;2022-11-20T06:52:02;2.40;99.90
54788;DHT22;59598;48.112;16.280;2022-11-20T06:54:36;2.40;99.90
54788;DHT22;59598;48.112;16.280;2022-11-20T06:57:12;2.40;99.90
54788;DHT22;59598;48.112;16.280;2022-11-20T06:59:45;2.30;99.90
54788;DHT22;59598;48.112;16.280;2022-11-20T07:02:22;2.50;99.90
54788;DHT22;59598;48.112;16.280;2022-11-20T07:04:56;2.70;99.90
54788;DHT22;59598;48.112;16.280;2022-11-20T07:07:31;2.70;99.90
54788;DHT22;59598;48.112;16.280;2022-11-20T07:10:04;2.80;99.90
54788;DHT22;59598;48.112;16.280;2022-11-20T07:12:35;2.90;99.90
54788;DHT22;59598;48.112;16.280;2022-11-20T07:15:11;3.00;99.90
54788;DHT22;59598;48.112;16.280;2022-11-20T07:17:45;3.10;99.90
54788;DHT22;59598;48.112;16.280;2022-11-20T07:20:17;3.10;99.90
54788;DHT22;59598;48.112;16.280;2022-11-20T07:22:56;3.20;99.90
54788;DHT22;59598;48.112;16.280;2022-11-20T07:25:37;3.10;99.90
54788;DHT22;59598;48.112;16.280;2022-11-20T07:28:10;3.10;99.90
54788;DHT22;59598;48.112;16.280;2022-11-20T07:30:42;3.00;99.90
54788;DHT22;59598;48.112;16.280;2022-11-20T07:33:15;2.90;99.90
54788;DHT22;59598;48.112;16.280;2022-11-20T07:35:49;3.00;99.90
54788;DHT22;59598;48.112;16.280;2022-11-20T07:38:25;3.10;99.90
54788;DHT22;59598;48.112;16.280;2022-11-20T07:40:57;3.20;99.90
54788;DHT22;59598;48.112;16.280;2022-11-20T07:43:32;3.10;99.90
54788;DHT22;59598;48.112;16.280;2022-11-20T07:46:03;3.10;99.90
54788;DHT22;59598;48.112;16.280;2022-11-20T07:48:35;3.10;99.90
54788;DHT22;59598;48.112;16.280;2022-11-20T07:51:06;3.00;99.90
54788;DHT22;59598;48.112;16.280;2022-11-20T07:53:41;2.90;99.90
54788;DHT22;59598;48.112;16.280;2022-11-20T07:56:14;3.00;99.90
54788;DHT22;59598;48.112;16.280;2022-11-20T07:58:51;3.00;99.90
54788;DHT22;59598;48.112;16.280;2022-11-20T08:01:28;2.80;99.90
54788;DHT22;59598;48.112;16.280;2022-11-20T08:03:59;2.80;99.90
54788;DHT22;59598;48.112;16.280;2022-11-20T08:06:36;2.80;99.90
54788;DHT22;59598;48.112;16.280;2022-11-20T08:09:10;2.80;99.90
54788;DHT22;59598;48.112;16.280;2022-11-20T08:11:41;2.60;99.90
54788;DHT22;59598;48.112;16.280;2022-11-20T08:14:33;2.60;99.90
54788;DHT22;59598;48.112;16.280;2022-11-20T08:17:09;2.60;99.90
54788;DHT22;59598;48.112;16.280;2022-11-20T08:19:41;2.60;99.90
54788;DHT22;59598;48.112;16.280;2022-11-20T08:22:14;2.60;99.90
54788;DHT22;59598;48.112;16.280;2022-11-20T08:24:47;2.40;99.90
54788;DHT22;59598;48.112;16.280;2022-11-20T08:27:20;2.50;99.90
54788;DHT22;59598;48.112;16.280;2022-11-20T08:29:52;2.60;99.90
54788;DHT22;59598;48.112;16.280;2022-11-20T08:32:26;2.80;99.90
54788;DHT22;59598;48.112;16.280;2022-11-20T08:34:58;2.80;99.90
54788;DHT22;59598;48.112;16.280;2022-11-20T08:37:32;2.80;99.90
54788;DHT22;59598;48.112;16.280;2022-11-20T08:40:06;2.60;99.90
54788;DHT22;59598;48.112;16.280;2022-11-20T08:42:45;2.80;99.90
54788;DHT22;59598;48.112;16.280;2022-11-20T08:45:34;2.90;99.90
54788;DHT22;59598;48.112;16.280;2022-11-20T08:48:11;3.10;99.90
54788;DHT22;59598;48.112;16.280;2022-11-20T08:50:42;3.00;99.90
54788;DHT22;59598;48.112;16.280;2022-11-20T08:53:16;3.20;99.90
54788;DHT22;59598;48.112;16.280;2022-11-20T08:55:49;3.30;99.90
54788;DHT22;59598;48.112;16.280;2022-11-20T08:58:25;3.50;99.90
54788;DHT22;59598;48.112;16.280;2022-11-20T09:00:57;3.30;99.90
54788;DHT22;59598;48.112;16.280;2022-11-20T09:03:28;3.30;99.90
54788;DHT22;59598;48.112;16.280;2022-11-20T09:06:05;3.40;99.90
54788;DHT22;59598;48.112;16.280;2022-11-20T09:08:37;4.00;99.90
54788;DHT22;59598;48.112;16.280;2022-11-20T09:11:10;4.60;99.90
54788;DHT22;59598;48.112;16.280;2022-11-20T09:13:41;4.60;99.90
54788;DHT22;59598;48.112;16.280;2022-11-20T09:16:20;4.50;99.90
54788;DHT22;59598;48.112;16.280;2022-11-20T09:18:51;4.60;99.90
54788;DHT22;59598;48.112;16.280;2022-11-20T09:21:22;4.30;99.90
54788;DHT22;59598;48.112;16.280;2022-11-20T09:23:56;4.70;99.90
54788;DHT22;59598;48.112;16.280;2022-11-20T09:26:30;4.90;99.90
54788;DHT22;59598;48.112;16.280;2022-11-20T09:29:01;5.00;99.90
54788;DHT22;59598;48.112;16.280;2022-11-20T09:31:32;5.10;99.90
54788;DHT22;59598;48.112;16.280;2022-11-20T09:34:09;5.10;99.90
54788;DHT22;59598;48.112;16.280;2022-11-20T09:36:40;4.80;99.90
54788;DHT22;59598;48.112;16.280;2022-11-20T09:39:12;4.60;99.90
54788;DHT22;59598;48.112;16.280;2022-11-20T09:50:35;4.40;99.90
54788;DHT22;59598;48.112;16.280;2022-11-20T09:55:58;4.70;99.90
54788;DHT22;59598;48.112;16.280;2022-11-20T09:58:39;4.80;99.90
54788;DHT22;59598;48.112;16.280;2022-11-20T10:01:16;4.90;99.90
54788;DHT22;59598;48.112;16.280;2022-11-20T10:04:06;5.30;99.90
54788;DHT22;59598;48.112;16.280;2022-11-20T10:07:13;5.60;99.90
54788;DHT22;59598;48.112;16.280;2022-11-20T10:09:51;5.70;99.90
54788;DHT22;59598;48.112;16.280;2022-11-20T10:15:28;5.60;99.90
54788;DHT22;59598;48.112;16.280;2022-11-20T10:18:26;5.60;99.90
54788;DHT22;59598;48.112;16.280;2022-11-20T10:27:22;5.40;99.90
54788;DHT22;59598;48.112;16.280;2022-11-20T10:30:18;5.40;99.90
54788;DHT22;59598;48.112;16.280;2022-11-20T10:33:00;5.40;99.90
54788;DHT22;59598;48.112;16.280;2022-11-20T10:38:42;5.70;99.90
54788;DHT22;59598;48.112;16.280;2022-11-20T10:41:41;6.10;99.90
54788;DHT22;59598;48.112;16.280;2022-11-20T10:44:17;6.90;99.90
54788;DHT22;59598;48.112;16.280;2022-11-20T10:47:14;7.50;99.90
54788;DHT22;59598;48.112;16.280;2022-11-20T10:49:51;7.90;99.90
54788;DHT22;59598;48.112;16.280;2022-11-20T10:59:11;6.70;99.90
54788;DHT22;59598;48.112;16.280;2022-11-20T11:01:55;6.30;99.90
54788;DHT22;59598;48.112;16.280;2022-11-20T11:04:33;6.40;99.90
54788;DHT22;59598;48.112;16.280;2022-11-20T11:07:30;6.10;99.90
54788;DHT22;59598;48.112;16.280;2022-11-20T11:10:12;6.30;99.90
54788;DHT22;59598;48.112;16.280;2022-11-20T11:12:48;6.30;99.90
54788;DHT22;59598;48.112;16.280;2022-11-20T11:15:29;6.60;99.90
54788;DHT22;59598;48.112;16.280;2022-11-20T11:18:03;7.10;99.90
54788;DHT22;59598;48.112;16.280;2022-11-20T11:20:37;7.60;99.90
54788;DHT22;59598;48.112;16.280;2022-11-20T11:23:31;8.00;99.90
54788;DHT22;59598;48.112;16.280;2022-11-20T11:26:18;8.20;99.90
54788;DHT22;59598;48.112;16.280;2022-11-20T11:28:58;8.40;99.90
54788;DHT22;59598;48.112;16.280;2022-11-20T11:31:34;8.50;99.90
54788;DHT22;59598;48.112;16.280;2022-11-20T11:34:17;8.20;99.90
54788;DHT22;59598;48.112;16.280;2022-11-20T11:36:58;8.30;99.90
54788;DHT22;59598;48.112;16.280;2022-11-20T11:39:40;8.30;99.90
54788;DHT22;59598;48.112;16.280;2022-11-20T11:42:18;8.20;99.90
54788;DHT22;59598;48.112;16.280;2022-11-20T11:45:05;8.70;99.90
54788;DHT22;59598;48.112;16.280;2022-11-20T11:47:46;8.80;99.90
54788;DHT22;59598;48.112;16.280;2022-11-20T11:50:29;8.70;99.90
54788;DHT22;59598;48.112;16.280;2022-11-20T11:53:12;8.60;99.90
54788;DHT22;59598;48.112;16.280;2022-11-20T11:58:51;9.80;99.90
54788;DHT22;59598;48.112;16.280;2022-11-20T12:01:48;12.00;99.90
54788;DHT22;59598;48.112;16.280;2022-11-20T12:04:43;13.80;99.90
54788;DHT22;59598;48.112;16.280;2022-11-20T12:16:02;15.40;99.90
54788;DHT22;59598;48.112;16.280;2022-11-20T12:18:51;15.80;99.90
54788;DHT22;59598;48.112;16.280;2022-11-20T12:27:05;15.20;99.90
54788;DHT22;59598;48.112;16.280;2022-11-20T12:30:09;14.60;99.90
54788;DHT22;59598;48.112;16.280;2022-11-20T12:36:06;15.50;99.90
54788;DHT22;59598;48.112;16.280;2022-11-20T12:39:02;15.20;99.90
54788;DHT22;59598;48.112;16.280;2022-11-20T12:53:38;16.50;99.90
54788;DHT22;59598;48.112;16.280;2022-11-20T13:06:56;16.00;99.90
54788;DHT22;59598;48.112;16.280;2022-11-20T13:09:48;15.40;99.90
54788;DHT22;59598;48.112;16.280;2022-11-20T13:12:43;15.50;99.90
54788;DHT22;59598;48.112;16.280;2022-11-20T13:18:19;14.70;99.90
54788;DHT22;59598;48.112;16.280;2022-11-20T13:20:53;14.80;99.90
54788;DHT22;59598;48.112;16.280;2022-11-20T13:23:26;14.40;99.90
54788;DHT22;59598;48.112;16.280;2022-11-20T13:26:13;13.80;99.90
54788;DHT22;59598;48.112;16.280;2022-11-20T13:29:09;13.20;99.90
54788;DHT22;59598;48.112;16.280;2022-11-20T13:31:45;12.20;99.90
54788;DHT22;59598;48.112;16.280;2022-11-20T13:34:27;10.90;99.90
54788;DHT22;59598;48.112;16.280;2022-11-20T13:37:01;10.50;99.90
54788;DHT22;59598;48.112;16.280;2022-11-20T13:39:37;10.90;99.90
54788;DHT22;59598;48.112;16.280;2022-11-20T13:44:54;11.30;99.90
54788;DHT22;59598;48.112;16.280;2022-11-20T13:47:29;10.40;99.90
54788;DHT22;59598;48.112;16.280;2022-11-20T13:50:46;10.00;99.90
54788;DHT22;59598;48.112;16.280;2022-11-20T13:53:33;9.60;99.90
54788;DHT22;59598;48.112;16.280;2022-11-20T14:02:38;9.40;99.90
54788;DHT22;59598;48.112;16.280;2022-11-20T14:05:26;9.20;99.90
54788;DHT22;59598;48.112;16.280;2022-11-20T14:08:19;8.90;99.90
54788;DHT22;59598;48.112;16.280;2022-11-20T14:11:04;8.50;99.90
54788;DHT22;59598;48.112;16.280;2022-11-20T14:13:36;8.60;99.90
54788;DHT22;59598;48.112;16.280;2022-11-20T14:16:09;8.20;99.90
54788;DHT22;59598;48.112;16.280;2022-11-20T14:18:43;8.10;99.90
54788;DHT22;59598;48.112;16.280;2022-11-20T14:21:29;8.10;99.90
54788;DHT22;59598;48.112;16.280;2022-11-20T14:24:11;7.90;99.90
54788;DHT22;59598;48.112;16.280;2022-11-20T14:26:46;7.80;99.90
54788;DHT22;59598;48.112;16.280;2022-11-20T14:29:19;7.70;99.90
54788;DHT22;59598;48.112;16.280;2022-11-20T14:31:54;7.60;99.90
54788;DHT22;59598;48.112;16.280;2022-11-20T14:34:31;7.50;99.90
54788;DHT22;59598;48.112;16.280;2022-11-20T14:37:11;7.20;99.90
54788;DHT22;59598;48.112;16.280;2022-11-20T14:39:54;7.10;99.90
54788;DHT22;59598;48.112;16.280;2022-11-20T14:42:29;7.00;99.90
54788;DHT22;59598;48.112;16.280;2022-11-20T14:45:04;6.90;99.90
54788;DHT22;59598;48.112;16.280;2022-11-20T14:47:40;6.80;99.90
54788;DHT22;59598;48.112;16.280;2022-11-20T14:50:24;6.60;99.90
54788;DHT22;59598;48.112;16.280;2022-11-20T14:52:58;6.50;99.90
54788;DHT22;59598;48.112;16.280;2022-11-20T14:55:37;6.30;99.90
54788;DHT22;59598;48.112;16.280;2022-11-20T14:58:22;6.20;99.90
54788;DHT22;59598;48.112;16.280;2022-11-20T15:00:56;6.00;99.90
54788;DHT22;59598;48.112;16.280;2022-11-20T15:03:36;5.90;99.90
54788;DHT22;59598;48.112;16.280;2022-11-20T15:06:11;5.70;99.90
54788;DHT22;59598;48.112;16.280;2022-11-20T15:08:55;5.60;99.90
54788;DHT22;59598;48.112;16.280;2022-11-20T15:11:33;5.50;99.90
54788;DHT22;59598;48.112;16.280;2022-11-20T15:14:08;5.40;99.90
54788;DHT22;59598;48.112;16.280;2022-11-20T15:16:43;5.40;99.90
54788;DHT22;59598;48.112;16.280;2022-11-20T15:19:22;5.40;99.90
54788;DHT22;59598;48.112;16.280;2022-11-20T15:21:54;5.30;99.90
54788;DHT22;59598;48.112;16.280;2022-11-20T15:24:31;5.20;99.90
54788;DHT22;59598;48.112;16.280;2022-11-20T15:27:02;5.10;99.90
54788;DHT22;59598;48.112;16.280;2022-11-20T15:29:36;4.90;99.90
54788;DHT22;59598;48.112;16.280;2022-11-20T15:32:09;4.90;99.90
54788;DHT22;59598;48.112;16.280;2022-11-20T15:34:41;4.90;99.90
54788;DHT22;59598;48.112;16.280;2022-11-20T15:37:15;4.80;99.90
54788;DHT22;59598;48.112;16.280;2022-11-20T15:39:46;4.70;99.90
54788;DHT22;59598;48.112;16.280;2022-11-20T15:42:17;4.60;99.90
54788;DHT22;59598;48.112;16.280;2022-11-20T15:44:49;4.40;99.90
54788;DHT22;59598;48.112;16.280;2022-11-20T15:47:28;4.40;99.90
54788;DHT22;59598;48.112;16.280;2022-11-20T15:50:00;4.40;99.90
54788;DHT22;59598;48.112;16.280;2022-11-20T15:52:32;4.30;99.90
54788;DHT22;59598;48.112;16.280;2022-11-20T15:55:32;4.30;99.90
54788;DHT22;59598;48.112;16.280;2022-11-20T15:58:03;4.20;99.90
54788;DHT22;59598;48.112;16.280;2022-11-20T16:00:34;4.20;99.90
54788;DHT22;59598;48.112;16.280;2022-11-20T16:03:12;4.20;99.90
54788;DHT22;59598;48.112;16.280;2022-11-20T16:05:47;4.20;99.90
54788;DHT22;59598;48.112;16.280;2022-11-20T16:08:21;4.20;99.90
54788;DHT22;59598;48.112;16.280;2022-11-20T16:10:53;4.10;99.90
54788;DHT22;59598;48.112;16.280;2022-11-20T16:13:24;3.80;99.90
54788;DHT22;59598;48.112;16.280;2022-11-20T16:16:34;3.50;99.90
54788;DHT22;59598;48.112;16.280;2022-11-20T16:19:12;3.30;99.90
54788;DHT22;59598;48.112;16.280;2022-11-20T16:21:44;3.20;99.90
54788;DHT22;59598;48.112;16.280;2022-11-20T16:24:19;3.20;99.90
54788;DHT22;59598;48.112;16.280;2022-11-20T16:26:52;3.30;99.90
54788;DHT22;59598;48.112;16.280;2022-11-20T16:29:26;3.40;99.90
54788;DHT22;59598;48.112;16.280;2022-11-20T16:32:00;3.40;99.90
54788;DHT22;59598;48.112;16.280;2022-11-20T16:34:32;3.20;99.90
54788;DHT22;59598;48.112;16.280;2022-11-20T16:37:03;3.20;99.90
54788;DHT22;59598;48.112;16.280;2022-11-20T16:39:40;3.30;99.90
54788;DHT22;59598;48.112;16.280;2022-11-20T16:42:11;3.10;99.90
54788;DHT22;59598;48.112;16.280;2022-11-20T16:44:46;2.90;99.90
54788;DHT22;59598;48.112;16.280;2022-11-20T16:47:19;3.00;99.90
54788;DHT22;59598;48.112;16.280;2022-11-20T16:49:52;3.20;99.90
54788;DHT22;59598;48.112;16.280;2022-11-20T16:52:23;3.40;99.90
54788;DHT22;59598;48.112;16.280;2022-11-20T16:54:58;3.50;99.90
54788;DHT22;59598;48.112;16.280;2022-11-20T16:57:32;3.30;99.90
54788;DHT22;59598;48.112;16.280;2022-11-20T17:00:11;3.20;99.90
54788;DHT22;59598;48.112;16.280;2022-11-20T17:02:42;3.20;99.90
54788;DHT22;59598;48.112;16.280;2022-11-20T17:05:13;3.00;99.90
54788;DHT22;59598;48.112;16.280;2022-11-20T17:07:47;2.90;99.90
54788;DHT22;59598;48.112;16.280;2022-11-20T17:10:19;2.90;99.90
54788;DHT22;59598;48.112;16.280;2022-11-20T17:12:53;2.80;99.90
54788;DHT22;59598;48.112;16.280;2022-11-20T17:15:24;2.90;99.90
54788;DHT22;59598;48.112;16.280;2022-11-20T17:17:58;2.90;99.90
54788;DHT22;59598;48.112;16.280;2022-11-20T17:20:31;2.90;99.90
54788;DHT22;59598;48.112;16.280;2022-11-20T17:23:11;2.90;99.90
54788;DHT22;59598;48.112;16.280;2022-11-20T17:25:46;2.90;99.90
54788;DHT22;59598;48.112;16.280;2022-11-20T17:28:20;3.10;99.90
54788;DHT22;59598;48.112;16.280;2022-11-20T17:33:36;3.10;99.90
54788;DHT22;59598;48.112;16.280;2022-11-20T17:36:09;3.10;99.90
54788;DHT22;59598;48.112;16.280;2022-11-20T17:38:41;3.00;99.90
54788;DHT22;59598;48.112;16.280;2022-11-20T17:41:19;3.00;99.90
54788;DHT22;59598;48.112;16.280;2022-11-20T17:43:53;3.00;99.90
54788;DHT22;59598;48.112;16.280;2022-11-20T17:46:28;2.70;99.90
54788;DHT22;59598;48.112;16.280;2022-11-20T17:49:02;2.70;99.90
54788;DHT22;59598;48.112;16.280;2022-11-20T17:51:34;2.80;99.90
54788;DHT22;59598;48.112;16.280;2022-11-20T17:54:05;2.80;99.90
54788;DHT22;59598;48.112;16.280;2022-11-20T17:56:47;2.70;99.90
54788;DHT22;59598;48.112;16.280;2022-11-20T17:59:37;2.90;99.90
54788;DHT22;59598;48.112;16.280;2022-11-20T18:02:09;3.10;99.90